메인 페이지
METAR-TAF:

METAR-TAF

공항 :

Rutland Southern Vermont Regional Airport

Rutland, 버몬트, 미국

위도: 43-32N, 경도: 072-57W, 고도: 240m

현재 날씨관측

예보는 31분 전, 06:56시(UTC)에 발표되었습니다.
여러 방향의 바람 4kt
온도 12°C
습도 76%
기압 1020 hPa
시정: 16.1km
맑음

METAR: KRUT 220656Z AUTO VRB04KT 10SM CLR 12/08 A3012 RMK AO2 SLP194 T01220078 $

시각: 03:27 (07:27 UTC)

예보

예보는 2 시간 6분 전, 05:21시(UTC)에 발표되었습니다.
예보 대상 시간: 22일 06시부터 23일 06시까지 (UTC)
남남동7kt
시정: 10km
고도 25000ft 상공 흐림
22일 1500시부터 (UTC)
남동17kt, 순간 최대 풍속 25kt
시정: 10km
고도 18000ft 상공 흐림
22일 2200시부터 (UTC)
남동18kt, 순간 최대 풍속 25kt
시정: 10km
고도 3000ft 상공 흐림
시계 내 소나기
23일 0200시부터 (UTC)
남동16kt
시정: 8.0km
고도 1700ft 상공 흐림
약한비, 박무
23일 0500시부터 (UTC)
남남동10kt, 순간 최대 풍속 18kt
시정: 8.0km
고도 1700ft 상공 흐림
약한비, 박무

TAF: KRUT 220521Z 2206/2306 15007KT P6SM OVC250 FM221500 14017G25KT P6SM OVC180 FM222200 14018G25KT P6SM VCSH OVC030 FM230200 14016KT 5SM -RA BR OVC017 FM230500 15010G18KT 5SM -RA BR OVC017

4,000개 이상의 공항 관측 자료 및 예보 (METAR 및 TAF 보고).

지도상에서 검색 가능한 기상관측소가 노란 점과 빨간 점으로 표시되어 있습니다.

기상관측소 명을 보려면 표시 위로 마우스를 이동하세요.

날씨 관측과 예보를 보려면 클릭하세요.

지도 변경 : 확대하려면 엑스 표시가 있는 녹색 버튼, 축소하려면 빼기 표시가 있는 녹색 버튼, 다음 페이지의 지도를 보려면 녹색 화살표를 클릭하세요.


METAR-TAF: